Time;durP1;ratioP1;P1;durP2;ratioP2;P2;SDS_P1;SDS_P2;PMS_P1;PMS_P2;Temp;Humidity;BMP_temperature;BMP_pressure;BME280_temperature;BME280_humidity;BME280_pressure;Samples;Min_cycle;Max_cycle;Signal;HPM_P1;HPM_P2
2022/06/25 06:34:28;;;;;;;;;;;;;;;26.97;100.00;98161.72;5354610;24;19968;-69
2022/06/25 06:36:56;;;;;;;;;;;;;;;26.88;100.00;98158.25;4811653;29;20084;-69
2022/06/25 06:39:23;;;;;;;;;;;;;;;26.85;100.00;98165.06;4807678;29;19948;-67
2022/06/25 06:41:50;;;;;;;;;;;;;;;26.74;100.00;98169.38;4817745;29;19952;-68
2022/06/25 06:44:17;;;;;;;;;;;;;;;26.89;100.00;98162.72;4828948;29;20385;-68
2022/06/25 06:46:45;;;;;;;;;;;;;;;26.76;100.00;98165.22;4815728;29;19974;-68
2022/06/25 06:49:12;;;;;;;;;;;;;;;26.85;100.00;98167.91;4816789;29;20372;-67
2022/06/25 06:51:39;;;;;;;;;;;;;;;26.83;100.00;98177.03;4814386;29;19950;-68
2022/06/25 06:54:06;;;;;;;;;;;;;;;26.71;100.00;98173.25;4818869;29;19967;-68
2022/06/25 06:56:33;;;;;;;;;;;;;;;26.95;100.00;98175.78;4816195;29;19947;-67
2022/06/25 06:59:01;;;;;;;;;;;;;;;27.18;100.00;98176.72;4816423;29;19957;-67
2022/06/25 07:01:28;;;;;;;;;;;;;;;27.31;100.00;98169.22;4821381;29;19948;-66
2022/06/25 07:03:56;;;;;;;;;;;;;;;27.43;100.00;98175.06;4824846;29;19947;-66
2022/06/25 07:06:23;;;;;;;;;;;;;;;27.24;100.00;98169.72;4824352;29;19971;-66
2022/06/25 07:08:50;;;;;;;;;;;;;;;27.13;100.00;98168.88;4805515;29;19952;-66
2022/06/25 07:11:29;;;;;;;;;;;;;;;27.33;100.00;98171.59;4812334;29;19961;-66
2022/06/25 07:14:00;;;;;;;;;;;;;;;26.76;100.00;98159.47;4811273;29;19952;-66
2022/06/25 07:16:28;;;;;;;;;;;;;;;27.29;100.00;98171.81;4809964;29;19959;-66
2022/06/25 07:18:57;;;;;;;;;;;;;;;27.14;100.00;98161.84;4808322;29;19949;-66
2022/06/25 07:21:25;;;;;;;;;;;;;;;27.21;100.00;98164.22;4811164;29;19955;-66
2022/06/25 07:23:53;;;;;;;;;;;;;;;27.30;100.00;98158.25;4810146;29;20342;-66
2022/06/25 07:26:21;;;;;;;;;;;;;;;27.58;100.00;98167.03;4809655;29;19963;-66
2022/06/25 07:28:50;;;;;;;;;;;;;;;27.63;100.00;98163.41;4807555;29;19951;-67
2022/06/25 07:31:17;;;;;;;;;;;;;;;27.70;100.00;98154.28;4811564;29;19954;-66
2022/06/25 07:33:45;;;;;;;;;;;;;;;27.62;100.00;98156.06;4795344;29;19969;-66
2022/06/25 07:36:12;;;;;;;;;;;;;;;27.73;100.00;98161.88;4808992;29;19981;-67
2022/06/25 07:38:39;;;;;;;;;;;;;;;27.77;100.00;98150.91;4809673;29;19951;-66
2022/06/25 07:41:07;;;;;;;;;;;;;;;27.47;100.00;98152.63;4809544;29;19949;-66
2022/06/25 07:43:34;;;;;;;;;;;;;;;27.68;100.00;98160.53;4808619;29;19953;-66
2022/06/25 07:46:02;;;;;;;;;;;;;;;27.62;100.00;98154.00;4810071;29;19964;-66
2022/06/25 07:48:30;;;;;;;;;;;;;;;27.62;100.00;98156.88;4807791;29;19960;-66
2022/06/25 07:53:43;;;;;;;;;;;;;;;27.84;100.00;98162.69;4809261;29;19972;-66
2022/06/25 07:56:10;;;;;;;;;;;;;;;28.08;100.00;98170.88;4810652;29;19953;-66
2022/06/25 07:58:38;;;;;;;;;;;;;;;28.09;100.00;98168.78;4807321;29;20365;-66
2022/06/25 08:01:05;;;;;;;;;;;;;;;28.22;100.00;98177.72;4811229;29;20278;-67
2022/06/25 08:03:32;;;;;;;;;;;;;;;28.22;100.00;98171.97;4814576;29;19954;-66
2022/06/25 08:06:00;;;;;;;;;;;;;;;28.12;100.00;98168.53;4809818;29;19966;-66
2022/06/25 08:08:27;;;;;;;;;;;;;;;28.08;100.00;98179.50;4818114;29;19957;-66
2022/06/25 08:10:55;;;;;;;;;;;;;;;28.13;100.00;98172.97;4821723;29;19977;-68
2022/06/25 08:13:22;;;;;;;;;;;;;;;28.06;100.00;98179.22;4792073;29;19957;-68
2022/06/25 08:15:50;;;;;;;;;;;;;;;27.68;100.00;98168.38;4793273;29;20398;-68
2022/06/25 08:18:17;;;;;;;;;;;;;;;27.92;100.00;98168.72;4794110;30;19962;-68
2022/06/25 08:20:45;;;;;;;;;;;;;;;27.87;100.00;98181.78;4797101;29;19959;-68
2022/06/25 08:23:12;;;;;;;;;;;;;;;27.98;100.00;98176.06;4822266;29;20340;-68
2022/06/25 08:25:39;;;;;;;;;;;;;;;28.00;99.17;98169.81;4824978;29;19970;-68
2022/06/25 08:28:07;;;;;;;;;;;;;;;28.02;99.62;98173.72;4827541;29;19949;-68
2022/06/25 08:30:34;;;;;;;;;;;;;;;27.87;98.68;98170.28;4809402;29;20373;-68
2022/06/25 08:33:02;;;;;;;;;;;;;;;27.94;99.27;98166.13;4813489;29;19949;-68
2022/06/25 08:35:30;;;;;;;;;;;;;;;27.99;100.00;98157.50;4806728;29;19976;-68
2022/06/25 08:37:57;;;;;;;;;;;;;;;27.93;100.00;98165.31;4811742;29;20104;-68
2022/06/25 08:40:24;;;;;;;;;;;;;;;28.09;97.71;98174.53;4826767;29;19955;-68
2022/06/25 08:42:52;;;;;;;;;;;;;;;27.98;98.11;98167.44;4823646;29;19953;-68
2022/06/25 08:45:19;;;;;;;;;;;;;;;28.18;100.00;98168.53;4825669;29;19956;-69
2022/06/25 08:47:47;;;;;;;;;;;;;;;28.31;100.00;98165.94;4824718;29;20339;-69
2022/06/25 08:50:16;;;;;;;;;;;;;;;27.98;100.00;98167.44;4813792;29;19954;-68
2022/06/25 08:52:45;;;;;;;;;;;;;;;28.18;100.00;98165.66;4812445;29;19958;-68
2022/06/25 08:55:19;;;;;;;;;;;;;;;28.21;97.61;98168.28;4815265;29;19955;-68
2022/06/25 08:57:46;;;;;;;;;;;;;;;28.45;98.19;98171.44;4830343;29;19950;-68
2022/06/25 09:00:13;;;;;;;;;;;;;;;28.47;94.65;98170.91;4830364;29;19947;-68
2022/06/25 09:02:45;;;;;;;;;;;;;;;28.59;90.72;98167.53;4823998;29;19950;-69
2022/06/25 09:05:12;;;;;;;;;;;;;;;28.59;89.98;98178.25;4824632;29;20214;-68
2022/06/25 09:07:51;;;;;;;;;;;;;;;28.60;95.20;98171.22;4806571;29;19966;-68
2022/06/25 09:10:18;;;;;;;;;;;;;;;28.72;90.68;98169.13;4798727;29;19953;-68
2022/06/25 09:12:50;;;;;;;;;;;;;;;28.54;93.15;98167.50;4820255;29;19950;-68
2022/06/25 09:15:18;;;;;;;;;;;;;;;28.68;93.29;98168.59;4829954;29;20349;-69
2022/06/25 09:17:46;;;;;;;;;;;;;;;28.52;93.74;98167.25;4829292;29;19958;-69
2022/06/25 09:20:13;;;;;;;;;;;;;;;28.62;93.32;98160.75;4829778;29;19952;-69
2022/06/25 09:22:51;;;;;;;;;;;;;;;28.48;91.57;98155.25;4803834;29;20365;-69
2022/06/25 09:25:23;;;;;;;;;;;;;;;28.56;94.78;98162.81;4814120;29;19961;-68
2022/06/25 09:27:50;;;;;;;;;;;;;;;28.77;99.44;98156.81;4813060;29;19965;-68
2022/06/25 09:30:20;;;;;;;;;;;;;;;28.69;93.34;98153.69;4816442;29;19954;-68
2022/06/25 09:32:53;;;;;;;;;;;;;;;28.53;95.19;98165.97;4816249;29;19947;-69
2022/06/25 09:35:31;;;;;;;;;;;;;;;28.53;98.66;98148.69;4826051;29;19971;-68
2022/06/25 09:38:03;;;;;;;;;;;;;;;28.60;89.77;98157.63;4828314;29;19971;-68
2022/06/25 09:40:30;;;;;;;;;;;;;;;28.84;90.17;98153.41;4814908;29;19950;-69
2022/06/25 09:43:09;;;;;;;;;;;;;;;28.67;87.71;98147.69;4813122;29;20531;-68
2022/06/25 09:45:37;;;;;;;;;;;;;;;28.74;89.48;98152.91;4810587;29;19949;-68
2022/06/25 09:48:07;;;;;;;;;;;;;;;28.78;86.08;98164.16;4810836;29;19967;-69
2022/06/25 09:50:34;;;;;;;;;;;;;;;28.93;90.43;98156.78;4810942;29;20218;-68
2022/06/25 09:53:02;;;;;;;;;;;;;;;28.97;85.21;98157.31;4810943;29;19955;-68
2022/06/25 09:55:33;;;;;;;;;;;;;;;28.99;95.73;98148.94;4795522;29;19958;-68
2022/06/25 09:58:01;;;;;;;;;;;;;;;29.10;92.60;98156.78;4810652;29;19956;-68
2022/06/25 10:00:29;;;;;;;;;;;;;;;29.01;83.58;98149.19;4810713;29;19959;-68
2022/06/25 10:02:57;;;;;;;;;;;;;;;29.08;84.11;98154.41;4794902;29;19947;-68
2022/06/25 10:05:30;;;;;;;;;;;;;;;29.02;89.59;98150.00;4810618;29;19961;-68
2022/06/25 10:08:04;;;;;;;;;;;;;;;29.21;87.67;98154.69;4810755;29;19968;-69
2022/06/25 10:10:33;;;;;;;;;;;;;;;29.19;87.07;98150.75;4810464;29;19953;-69
2022/06/25 10:13:02;;;;;;;;;;;;;;;29.08;85.64;98144.97;4810457;29;19947;-69
2022/06/25 10:15:29;;;;;;;;;;;;;;;29.12;81.19;98146.31;4810258;29;19973;-69
2022/06/25 10:17:59;;;;;;;;;;;;;;;29.20;82.19;98155.19;4815807;29;19953;-69
2022/06/25 10:20:26;;;;;;;;;;;;;;;29.00;78.30;98144.75;4815621;29;19949;-69
2022/06/25 10:22:53;;;;;;;;;;;;;;;29.07;76.48;98138.47;4821194;29;19951;-68
2022/06/25 10:25:22;;;;;;;;;;;;;;;29.14;85.21;98142.88;4818927;29;19957;-68
2022/06/25 10:27:51;;;;;;;;;;;;;;;29.25;80.26;98143.66;4816312;29;19964;-68
2022/06/25 10:30:39;;;;;;;;;;;;;;;29.27;81.59;98123.75;4817584;29;19948;-68
2022/06/25 10:33:07;;;;;;;;;;;;;;;29.44;82.02;98134.44;4820255;29;19957;-69
2022/06/25 10:35:39;;;;;;;;;;;;;;;29.36;76.62;98142.84;4825371;29;19971;-69
2022/06/25 10:38:14;;;;;;;;;;;;;;;29.51;78.82;98125.25;4825141;29;19946;-69
2022/06/25 10:40:52;;;;;;;;;;;;;;;29.31;78.95;98134.22;4809970;29;20232;-69
2022/06/25 10:43:54;;;;;;;;;;;;;;;29.35;77.09;98134.72;4812589;29;19962;-68
2022/06/25 10:46:24;;;;;;;;;;;;;;;29.37;86.81;98140.75;4801581;29;19958;-68
2022/06/25 10:48:55;;;;;;;;;;;;;;;29.31;83.05;98145.75;4821870;29;19948;-68
2022/06/25 10:51:29;;;;;;;;;;;;;;;29.47;78.43;98137.03;4827140;29;19948;-68
2022/06/25 10:53:58;;;;;;;;;;;;;;;29.53;80.80;98152.22;4815909;29;19976;-68
2022/06/25 10:56:25;;;;;;;;;;;;;;;29.34;82.45;98141.81;4817317;29;20333;-69
2022/06/25 10:58:53;;;;;;;;;;;;;;;29.32;82.37;98135.81;4818373;29;19960;-69
2022/06/25 11:01:24;;;;;;;;;;;;;;;29.46;79.67;98138.38;4804668;29;19956;-69
2022/06/25 11:03:56;;;;;;;;;;;;;;;29.61;80.62;98140.91;4821942;29;19957;-69
2022/06/25 11:06:29;;;;;;;;;;;;;;;29.53;74.02;98145.66;4809944;29;19948;-68
2022/06/25 11:09:04;;;;;;;;;;;;;;;29.53;78.13;98134.13;4815798;29;20352;-68
2022/06/25 11:11:32;;;;;;;;;;;;;;;29.51;80.31;98133.88;4809810;29;19993;-69
2022/06/25 11:14:00;;;;;;;;;;;;;;;29.56;79.63;98139.63;4825606;29;19954;-69
2022/06/25 11:16:28;;;;;;;;;;;;;;;29.55;79.33;98131.50;4812426;29;19951;-69
2022/06/25 11:18:56;;;;;;;;;;;;;;;29.66;73.72;98137.22;4808580;29;19959;-70
2022/06/25 11:21:25;;;;;;;;;;;;;;;29.76;75.04;98135.59;4821857;29;20340;-69
2022/06/25 11:23:53;;;;;;;;;;;;;;;29.66;79.55;98134.34;4823672;29;19952;-69
2022/06/25 11:29:07;;;;;;;;;;;;;;;29.62;81.65;98128.06;4827939;29;19953;-69
2022/06/25 11:31:34;;;;;;;;;;;;;;;29.49;74.23;98128.63;4828186;29;19951;-69
2022/06/25 11:34:03;;;;;;;;;;;;;;;29.45;77.96;98136.78;4827539;29;19977;-69
2022/06/25 11:36:32;;;;;;;;;;;;;;;29.58;74.16;98128.34;4813333;29;20348;-69
2022/06/25 11:39:00;;;;;;;;;;;;;;;29.56;78.21;98136.75;4801593;29;19962;-69
2022/06/25 11:41:29;;;;;;;;;;;;;;;29.56;70.96;98135.97;4804411;29;19957;-70
2022/06/25 11:44:07;;;;;;;;;;;;;;;29.67;73.73;98127.25;4804151;29;19952;-69
2022/06/25 11:46:35;;;;;;;;;;;;;;;29.76;80.28;98129.84;4817267;29;19946;-68
2022/06/25 11:49:05;;;;;;;;;;;;;;;29.65;77.24;98136.44;4819779;29;19951;-67
2022/06/25 11:51:32;;;;;;;;;;;;;;;29.77;75.26;98142.97;4812891;29;20280;-69
2022/06/25 11:54:03;;;;;;;;;;;;;;;29.75;73.90;98128.25;4812516;29;20666;-69
2022/06/25 11:56:31;;;;;;;;;;;;;;;29.73;70.63;98125.13;4810969;29;19949;-68
2022/06/25 11:58:58;;;;;;;;;;;;;;;29.52;69.83;98124.69;4811098;29;19950;-69
2022/06/25 12:01:29;;;;;;;;;;;;;;;29.55;70.37;98128.63;4806665;29;20341;-69
2022/06/25 12:03:57;;;;;;;;;;;;;;;29.53;71.33;98116.84;4811607;29;19948;-69
2022/06/25 12:06:24;;;;;;;;;;;;;;;29.59;67.94;98126.25;4807711;29;19948;-69
2022/06/25 12:08:52;;;;;;;;;;;;;;;29.62;75.77;98125.19;4811457;29;19972;-69
2022/06/25 12:11:19;;;;;;;;;;;;;;;29.59;68.85;98129.16;4806393;29;20315;-69
2022/06/25 12:13:47;;;;;;;;;;;;;;;29.55;75.98;98117.09;4810156;29;19947;-70
2022/06/25 12:16:14;;;;;;;;;;;;;;;29.53;69.77;98108.19;4805570;29;19958;-69
2022/06/25 12:18:43;;;;;;;;;;;;;;;29.59;74.31;98111.84;4809727;29;19985;-69
2022/06/25 12:21:16;;;;;;;;;;;;;;;29.62;64.37;98122.28;4807666;29;19961;-69
2022/06/25 12:23:51;;;;;;;;;;;;;;;29.64;68.96;98114.69;4805288;29;19959;-69
2022/06/25 12:26:28;;;;;;;;;;;;;;;29.45;69.67;98110.84;4811212;29;19949;-69
2022/06/25 12:29:09;;;;;;;;;;;;;;;29.59;65.53;98108.97;4811058;29;19967;-69
2022/06/25 12:31:37;;;;;;;;;;;;;;;29.60;68.52;98108.44;4811987;29;20366;-68
2022/06/25 12:34:05;;;;;;;;;;;;;;;29.51;71.90;98102.19;4818878;29;20250;-68
2022/06/25 12:36:36;;;;;;;;;;;;;;;29.49;68.88;98099.81;4815340;29;19950;-69
2022/06/25 12:39:22;;;;;;;;;;;;;;;29.50;71.96;98094.84;4822266;29;20235;-68
2022/06/25 12:41:50;;;;;;;;;;;;;;;29.53;73.32;98085.94;4816461;29;19954;-68
2022/06/25 12:44:19;;;;;;;;;;;;;;;29.57;69.78;98085.63;4815040;29;19946;-68
2022/06/25 12:47:02;;;;;;;;;;;;;;;29.59;71.22;98091.69;4817169;29;19954;-68
2022/06/25 12:49:59;;;;;;;;;;;;;;;29.56;67.98;98090.66;4809797;29;20245;-68
2022/06/25 12:52:36;;;;;;;;;;;;;;;29.55;77.43;98097.72;4804235;29;19945;-68
2022/06/25 12:55:05;;;;;;;;;;;;;;;29.54;67.20;98092.50;4827914;29;19956;-69
2022/06/25 12:57:33;;;;;;;;;;;;;;;29.62;69.83;98096.34;4809906;29;20383;-69
2022/06/25 13:00:03;;;;;;;;;;;;;;;29.49;68.89;98094.06;4814544;29;19957;-69
2022/06/25 13:02:34;;;;;;;;;;;;;;;29.53;69.47;98093.78;4807387;29;20248;-68
2022/06/25 13:05:01;;;;;;;;;;;;;;;29.54;71.78;98090.38;4808261;29;20324;-69
2022/06/25 13:07:29;;;;;;;;;;;;;;;29.63;66.16;98097.94;5153652;24;19980;-72
2022/06/25 13:16:30;;;;;;;;;;;;;;;29.52;70.60;98095.88;4966855;24;20262;-74
2022/06/25 13:18:58;;;;;;;;;;;;;;;29.52;70.05;98098.78;4820179;29;19956;-73
2022/06/25 13:21:25;;;;;;;;;;;;;;;29.57;69.87;98095.06;4828757;29;20241;-73
2022/06/25 13:23:52;;;;;;;;;;;;;;;29.53;70.01;98097.47;4827895;29;20322;-72
2022/06/25 13:26:20;;;;;;;;;;;;;;;29.41;72.76;98092.28;4816152;29;19952;-73
2022/06/25 13:28:47;;;;;;;;;;;;;;;29.53;74.92;98096.69;4827180;29;20349;-73
2022/06/25 13:31:14;;;;;;;;;;;;;;;29.48;73.55;98086.75;4827154;29;19955;-73
2022/06/25 13:33:42;;;;;;;;;;;;;;;29.55;69.06;98097.72;4827138;29;19957;-73
2022/06/25 13:36:09;;;;;;;;;;;;;;;29.53;68.33;98106.09;4828443;29;19957;-73
2022/06/25 13:38:37;;;;;;;;;;;;;;;29.65;66.29;98109.72;4828208;29;19961;-73
2022/06/25 13:41:05;;;;;;;;;;;;;;;29.47;66.50;98104.56;4827336;29;19959;-73
2022/06/25 13:43:32;;;;;;;;;;;;;;;29.49;66.75;98099.81;4827756;29;19958;-73
2022/06/25 13:45:59;;;;;;;;;;;;;;;29.58;76.11;98095.88;4828563;29;19953;-73
2022/06/25 13:48:27;;;;;;;;;;;;;;;29.64;63.76;98111.81;4827860;29;19966;-73
2022/06/25 13:50:54;;;;;;;;;;;;;;;29.44;62.81;98111.41;4827726;29;19957;-73
2022/06/25 13:53:22;;;;;;;;;;;;;;;29.35;63.96;98100.16;4827623;29;19952;-73
2022/06/25 13:55:50;;;;;;;;;;;;;;;29.33;60.31;98108.53;4828605;29;19978;-73
2022/06/25 13:58:17;;;;;;;;;;;;;;;29.16;66.98;98097.84;4828642;29;20322;-73
2022/06/25 14:00:45;;;;;;;;;;;;;;;29.17;73.42;98099.41;4828281;29;19949;-73
2022/06/25 14:03:12;;;;;;;;;;;;;;;29.18;74.01;98095.22;4828921;29;20321;-73
2022/06/25 14:05:39;;;;;;;;;;;;;;;29.11;72.96;98087.13;4827540;29;19946;-73
2022/06/25 14:08:07;;;;;;;;;;;;;;;29.20;65.92;98094.72;4799180;29;19977;-73
2022/06/25 14:10:34;;;;;;;;;;;;;;;29.17;70.03;98087.88;4827997;29;19948;-73
2022/06/25 14:13:01;;;;;;;;;;;;;;;29.16;68.61;98088.44;4828043;29;19950;-73
2022/06/25 14:15:29;;;;;;;;;;;;;;;29.03;70.36;98083.22;4827460;29;19975;-73
2022/06/25 14:17:57;;;;;;;;;;;;;;;29.18;64.30;98091.56;4828259;29;20688;-73
2022/06/25 14:20:25;;;;;;;;;;;;;;;29.13;62.33;98086.59;4827676;29;19955;-73
2022/06/25 14:22:52;;;;;;;;;;;;;;;29.18;64.95;98086.59;4828239;29;19954;-73
2022/06/25 14:25:26;;;;;;;;;;;;;;;29.12;72.26;98082.97;4828167;29;20353;-73
2022/06/25 14:27:57;;;;;;;;;;;;;;;29.17;71.86;98073.47;4827432;29;19955;-73
2022/06/25 14:30:26;;;;;;;;;;;;;;;29.20;63.74;98083.97;4828078;29;20064;-73
2022/06/25 14:32:53;;;;;;;;;;;;;;;29.03;65.89;98079.56;4827167;29;20257;-73
2022/06/25 14:35:21;;;;;;;;;;;;;;;29.07;67.71;98078.00;4811335;29;19953;-73
2022/06/25 14:43:12;;;;;;;;;;;;;;;29.08;66.65;98079.53;4827216;29;19956;-73
2022/06/25 14:45:40;;;;;;;;;;;;;;;29.03;61.17;98079.56;4826610;29;19948;-73
2022/06/25 14:48:08;;;;;;;;;;;;;;;29.05;63.40;98083.47;4827417;29;19954;-72
2022/06/25 14:50:35;;;;;;;;;;;;;;;29.06;68.04;98084.25;4827114;29;19951;-73
2022/06/25 14:53:03;;;;;;;;;;;;;;;28.99;66.22;98074.09;4827862;29;19960;-73
2022/06/25 14:55:30;;;;;;;;;;;;;;;28.95;67.48;98078.56;4827833;29;19946;-73
2022/06/25 14:57:58;;;;;;;;;;;;;;;28.93;67.55;98072.53;4826615;29;19961;-73
2022/06/25 15:00:25;;;;;;;;;;;;;;;29.01;67.19;98070.66;4827588;29;19955;-72
2022/06/25 15:02:52;;;;;;;;;;;;;;;28.86;62.96;98064.44;4826998;29;20369;-73
2022/06/25 15:05:22;;;;;;;;;;;;;;;28.90;68.20;98080.16;4826837;29;19956;-73
2022/06/25 15:07:50;;;;;;;;;;;;;;;28.89;68.06;98066.25;4827158;29;20330;-73
2022/06/25 15:10:18;;;;;;;;;;;;;;;28.86;62.38;98070.97;4827403;29;19975;-73
2022/06/25 15:12:45;;;;;;;;;;;;;;;28.78;70.69;98074.94;4827310;29;20241;-72
2022/06/25 15:15:14;;;;;;;;;;;;;;;28.82;71.63;98066.81;4826943;29;19977;-73
2022/06/25 15:17:41;;;;;;;;;;;;;;;28.83;64.39;98068.38;4827608;29;19966;-72
2022/06/25 15:20:08;;;;;;;;;;;;;;;28.76;69.90;98068.94;4827389;29;19948;-73
2022/06/25 15:22:36;;;;;;;;;;;;;;;28.68;66.68;98056.38;4811410;29;19959;-73
2022/06/25 15:25:03;;;;;;;;;;;;;;;28.67;68.00;98058.47;4828414;29;19975;-72
2022/06/25 15:27:30;;;;;;;;;;;;;;;28.58;65.86;98061.59;4830354;29;19955;-73
2022/06/25 15:29:58;;;;;;;;;;;;;;;28.56;66.78;98058.47;4829823;29;19967;-73
2022/06/25 15:32:25;;;;;;;;;;;;;;;28.55;64.30;98059.78;4830288;29;19952;-73
2022/06/25 15:34:53;;;;;;;;;;;;;;;28.52;65.36;98052.97;4830410;29;19956;-73
2022/06/25 15:37:20;;;;;;;;;;;;;;;28.53;67.83;98045.13;4830758;29;19948;-73
2022/06/25 15:39:47;;;;;;;;;;;;;;;28.47;65.46;98038.59;4830349;29;19954;-73
2022/06/25 15:42:15;;;;;;;;;;;;;;;28.44;62.71;98031.78;4830363;29;19947;-72
2022/06/25 15:44:42;;;;;;;;;;;;;;;28.36;63.68;98032.88;4830696;29;20667;-73
2022/06/25 15:47:09;;;;;;;;;;;;;;;28.31;66.13;98028.69;4829608;29;19958;-73
2022/06/25 15:49:36;;;;;;;;;;;;;;;28.33;68.21;98026.06;4813779;29;19967;-73
2022/06/25 15:52:03;;;;;;;;;;;;;;;28.31;68.38;98027.91;4829194;29;19955;-73
2022/06/25 15:54:31;;;;;;;;;;;;;;;28.27;75.08;98028.16;4830560;29;19950;-73
2022/06/25 15:56:58;;;;;;;;;;;;;;;28.26;68.25;98029.47;4829674;29;19956;-73
2022/06/25 15:59:28;;;;;;;;;;;;;;;28.24;63.61;98031.31;4829799;29;20356;-73
2022/06/25 16:01:56;;;;;;;;;;;;;;;28.21;67.26;98026.59;4829723;29;19947;-73
2022/06/25 16:04:24;;;;;;;;;;;;;;;28.18;63.65;98036.28;4829514;29;19953;-73
2022/06/25 16:06:51;;;;;;;;;;;;;;;28.17;63.34;98032.59;4830410;29;19960;-73
2022/06/25 16:09:18;;;;;;;;;;;;;;;28.16;64.89;98031.06;4829693;29;19971;-73
2022/06/25 16:11:45;;;;;;;;;;;;;;;28.12;65.11;98032.63;4829482;29;20347;-73
2022/06/25 16:14:13;;;;;;;;;;;;;;;28.10;66.91;98032.38;4829700;29;19964;-73
2022/06/25 16:16:42;;;;;;;;;;;;;;;28.08;66.53;98035.75;4829491;29;20241;-73
2022/06/25 16:19:10;;;;;;;;;;;;;;;28.06;67.28;98023.19;4829316;29;19957;-72
2022/06/25 16:21:38;;;;;;;;;;;;;;;28.04;67.94;98031.56;4829530;29;20330;-73
2022/06/25 16:24:07;;;;;;;;;;;;;;;27.93;68.29;98030.22;4829485;29;19950;-73
2022/06/25 16:26:35;;;;;;;;;;;;;;;27.97;67.51;98032.84;4829075;29;19947;-73
2022/06/25 16:29:03;;;;;;;;;;;;;;;27.94;70.03;98028.94;4829888;29;19970;-72
2022/06/25 16:31:30;;;;;;;;;;;;;;;27.90;69.43;98030.50;4829657;29;19949;-72
2022/06/25 16:33:58;;;;;;;;;;;;;;;27.85;68.80;98029.16;4829400;29;19964;-72
2022/06/25 16:36:26;;;;;;;;;;;;;;;27.78;74.58;98023.19;4828894;29;19953;-73
2022/06/25 16:38:53;;;;;;;;;;;;;;;27.74;74.14;98031.25;4829427;29;19964;-73
2022/06/25 16:41:25;;;;;;;;;;;;;;;27.66;72.60;98028.09;4829069;29;19955;-72
2022/06/25 16:44:03;;;;;;;;;;;;;;;27.63;70.06;98034.13;4826777;29;19952;-72
2022/06/25 16:46:34;;;;;;;;;;;;;;;27.60;71.73;98030.22;4823054;29;19963;-73
2022/06/25 16:49:06;;;;;;;;;;;;;;;27.61;72.34;98026.00;4829710;29;19957;-73
2022/06/25 16:51:34;;;;;;;;;;;;;;;27.56;73.09;98031.78;4828650;29;19957;-73
2022/06/25 16:54:02;;;;;;;;;;;;;;;27.49;74.30;98027.28;4829365;29;19953;-73
2022/06/25 16:56:33;;;;;;;;;;;;;;;27.43;75.27;98032.25;4828753;29;20343;-73
2022/06/25 16:59:00;;;;;;;;;;;;;;;27.40;74.70;98021.00;4828996;29;20343;-72
2022/06/25 17:01:27;;;;;;;;;;;;;;;27.36;76.01;98024.88;4828948;29;19970;-72
2022/06/25 17:03:56;;;;;;;;;;;;;;;27.31;75.99;98019.16;4829332;29;19954;-72
2022/06/25 17:06:24;;;;;;;;;;;;;;;27.26;74.89;98023.56;4813476;29;19955;-73
2022/06/25 17:08:52;;;;;;;;;;;;;;;27.25;75.12;98019.13;4828618;29;19950;-72
2022/06/25 17:11:20;;;;;;;;;;;;;;;27.19;74.36;98020.41;4812532;29;20338;-73
2022/06/25 17:13:47;;;;;;;;;;;;;;;27.18;72.41;98021.69;4828446;29;20335;-72
2022/06/25 17:16:16;;;;;;;;;;;;;;;27.19;73.09;98020.41;4828549;29;19970;-72
2022/06/25 17:18:44;;;;;;;;;;;;;;;27.13;74.03;98025.34;4828448;29;20251;-73
2022/06/25 17:21:12;;;;;;;;;;;;;;;27.08;76.51;98018.28;4827828;29;20243;-72
2022/06/25 17:23:40;;;;;;;;;;;;;;;27.02;75.86;98022.44;4828108;29;20335;-73
2022/06/25 17:26:08;;;;;;;;;;;;;;;27.00;74.84;98030.75;4828388;29;19950;-72
2022/06/25 17:28:35;;;;;;;;;;;;;;;26.95;75.94;98022.94;4828881;29;19957;-72
2022/06/25 17:31:03;;;;;;;;;;;;;;;26.91;74.57;98026.03;4828137;29;19976;-72
2022/06/25 17:33:30;;;;;;;;;;;;;;;26.88;78.87;98026.28;4828454;29;19947;-73
2022/06/25 17:35:58;;;;;;;;;;;;;;;26.79;76.45;98023.63;4827917;29;20226;-73
2022/06/25 17:38:25;;;;;;;;;;;;;;;26.79;75.92;98024.41;4827531;29;19949;-72
2022/06/25 17:40:53;;;;;;;;;;;;;;;26.68;80.30;98027.19;4828368;29;20345;-72
2022/06/25 17:43:20;;;;;;;;;;;;;;;26.63;78.07;98025.09;4827988;29;19968;-72
2022/06/25 17:45:47;;;;;;;;;;;;;;;26.58;77.75;98022.97;4828753;29;19953;-72
2022/06/25 17:48:14;;;;;;;;;;;;;;;26.59;76.98;98024.53;4827285;29;19948;-73
2022/06/25 17:50:42;;;;;;;;;;;;;;;26.59;77.38;98025.31;4814542;29;19969;-72
2022/06/25 17:53:09;;;;;;;;;;;;;;;26.54;77.04;98039.63;4828613;29;20320;-72
2022/06/25 17:55:36;;;;;;;;;;;;;;;26.48;78.92;98036.72;4827788;29;19949;-73
2022/06/25 17:58:04;;;;;;;;;;;;;;;26.42;78.71;98024.44;4827857;29;20251;-73
2022/06/25 18:00:31;;;;;;;;;;;;;;;26.34;80.30;98028.28;4827356;29;19953;-72
2022/06/25 18:02:58;;;;;;;;;;;;;;;26.32;81.93;98030.88;4827797;29;20253;-73
2022/06/25 18:05:25;;;;;;;;;;;;;;;26.35;79.08;98036.38;4827692;29;19947;-72
2022/06/25 18:07:52;;;;;;;;;;;;;;;26.28;82.29;98038.94;4828470;29;19955;-73
2022/06/25 18:10:20;;;;;;;;;;;;;;;26.25;81.17;98039.94;4827546;29;19968;-73
2022/06/25 18:12:47;;;;;;;;;;;;;;;26.21;81.49;98042.28;4827994;29;19950;-72
2022/06/25 18:15:14;;;;;;;;;;;;;;;26.20;80.62;98046.41;4828367;29;19976;-73
2022/06/25 18:17:41;;;;;;;;;;;;;;;26.16;81.43;98051.63;4827730;29;19951;-73
2022/06/25 18:20:09;;;;;;;;;;;;;;;26.05;83.43;98047.31;4828256;29;19957;-73
2022/06/25 18:22:36;;;;;;;;;;;;;;;25.99;83.31;98052.22;4827500;29;20341;-73
2022/06/25 18:25:04;;;;;;;;;;;;;;;25.94;85.16;98047.25;4827287;29;19946;-73
2022/06/25 18:27:32;;;;;;;;;;;;;;;25.90;84.67;98049.53;4828060;29;19951;-73
2022/06/25 18:29:59;;;;;;;;;;;;;;;25.88;84.68;98048.47;4827997;29;19969;-72
2022/06/25 18:32:27;;;;;;;;;;;;;;;25.87;84.93;98059.13;4827187;29;19948;-73
2022/06/25 18:34:54;;;;;;;;;;;;;;;25.78;86.24;98049.94;4826945;29;20208;-73
2022/06/25 18:37:22;;;;;;;;;;;;;;;25.73;85.25;98048.59;4827967;29;19959;-73
2022/06/25 18:39:49;;;;;;;;;;;;;;;25.66;85.42;98048.25;4826542;29;19954;-73
2022/06/25 18:42:17;;;;;;;;;;;;;;;25.66;84.47;98048.25;4827326;29;19953;-72
2022/06/25 18:44:46;;;;;;;;;;;;;;;25.62;84.20;98047.72;4827497;29;19949;-73
2022/06/25 18:47:14;;;;;;;;;;;;;;;25.58;86.05;98045.06;4827003;29;19951;-73
2022/06/25 18:49:42;;;;;;;;;;;;;;;25.48;86.11;98035.06;4827003;29;19957;-73
2022/06/25 18:52:09;;;;;;;;;;;;;;;25.40;86.98;98033.91;4824711;29;19957;-72
2022/06/25 18:54:37;;;;;;;;;;;;;;;25.41;85.89;98035.47;4818576;29;19952;-73
2022/06/25 18:57:04;;;;;;;;;;;;;;;25.29;86.34;98045.22;4827174;29;20247;-72
2022/06/25 18:59:34;;;;;;;;;;;;;;;25.23;87.35;98038.69;4825751;29;19949;-73
2022/06/25 19:02:02;;;;;;;;;;;;;;;25.21;86.96;98046.97;4827083;29;20334;-72
2022/06/25 19:04:30;;;;;;;;;;;;;;;25.12;90.21;98047.13;4827316;29;19953;-73
2022/06/25 19:06:57;;;;;;;;;;;;;;;24.99;88.36;98041.75;4827295;29;19951;-72
2022/06/25 19:09:24;;;;;;;;;;;;;;;24.98;89.80;98059.44;4826912;29;19949;-72
2022/06/25 19:11:53;;;;;;;;;;;;;;;24.87;91.69;98057.19;4826865;29;19963;-72
2022/06/25 19:14:20;;;;;;;;;;;;;;;24.80;89.90;98057.63;4826568;29;19957;-72
2022/06/25 19:16:47;;;;;;;;;;;;;;;24.75;92.09;98052.59;4827458;29;19973;-72
2022/06/25 19:19:15;;;;;;;;;;;;;;;24.74;90.60;98065.34;4811374;29;20251;-72
2022/06/25 19:21:42;;;;;;;;;;;;;;;24.67;91.44;98066.53;4826949;29;19956;-72
2022/06/25 19:24:12;;;;;;;;;;;;;;;24.65;90.93;98066.25;4826469;29;20344;-73
2022/06/25 19:26:41;;;;;;;;;;;;;;;24.60;91.38;98064.09;4827093;29;19987;-72
2022/06/25 19:29:09;;;;;;;;;;;;;;;24.62;91.34;98064.41;4826921;29;19948;-72
2022/06/25 19:31:36;;;;;;;;;;;;;;;24.57;91.73;98067.97;4826245;29;20280;-72
2022/06/25 19:34:04;;;;;;;;;;;;;;;24.56;93.13;98069.22;4826665;29;19955;-73
2022/06/25 19:36:35;;;;;;;;;;;;;;;24.53;92.39;98081.66;4826294;29;19946;-72
2022/06/25 19:39:04;;;;;;;;;;;;;;;24.53;92.87;98073.06;4826419;29;19956;-72
2022/06/25 19:41:32;;;;;;;;;;;;;;;24.43;93.76;98083.06;4826114;29;19956;-72
2022/06/25 19:43:59;;;;;;;;;;;;;;;24.40;94.47;98074.72;4826891;29;20233;-72